sensor_id;sensor_type;location;lat;lon;timestamp;P1;durP1;ratioP1;P2;durP2;ratioP2
56173;SDS011;42058;52.308;20.924;2024-02-15T00:01:43;18.40;;;6.40;;
56173;SDS011;42058;52.308;20.924;2024-02-15T00:04:11;16.40;;;6.10;;
56173;SDS011;42058;52.308;20.924;2024-02-15T00:06:38;16.40;;;6.90;;
56173;SDS011;42058;52.308;20.924;2024-02-15T00:09:06;15.70;;;6.40;;
56173;SDS011;42058;52.308;20.924;2024-02-15T00:11:34;15.20;;;6.40;;
56173;SDS011;42058;52.308;20.924;2024-02-15T00:14:02;15.70;;;6.70;;
56173;SDS011;42058;52.308;20.924;2024-02-15T00:16:29;14.10;;;6.40;;
56173;SDS011;42058;52.308;20.924;2024-02-15T00:18:57;14.50;;;6.90;;
56173;SDS011;42058;52.308;20.924;2024-02-15T00:21:27;15.00;;;7.20;;
56173;SDS011;42058;52.308;20.924;2024-02-15T00:23:55;20.90;;;7.20;;
56173;SDS011;42058;52.308;20.924;2024-02-15T00:26:24;17.00;;;6.90;;
56173;SDS011;42058;52.308;20.924;2024-02-15T00:28:51;18.70;;;6.70;;
56173;SDS011;42058;52.308;20.924;2024-02-15T00:31:19;16.20;;;6.40;;
56173;SDS011;42058;52.308;20.924;2024-02-15T00:33:47;14.50;;;6.40;;
56173;SDS011;42058;52.308;20.924;2024-02-15T00:36:15;16.10;;;6.90;;
56173;SDS011;42058;52.308;20.924;2024-02-15T00:38:43;18.60;;;7.00;;
56173;SDS011;42058;52.308;20.924;2024-02-15T00:41:11;14.20;;;6.20;;
56173;SDS011;42058;52.308;20.924;2024-02-15T00:43:38;17.20;;;6.30;;
56173;SDS011;42058;52.308;20.924;2024-02-15T00:46:06;16.20;;;6.60;;
56173;SDS011;42058;52.308;20.924;2024-02-15T00:48:34;14.50;;;6.30;;
56173;SDS011;42058;52.308;20.924;2024-02-15T00:51:02;13.00;;;5.70;;
56173;SDS011;42058;52.308;20.924;2024-02-15T00:53:30;15.90;;;6.80;;
56173;SDS011;42058;52.308;20.924;2024-02-15T00:55:58;15.60;;;6.90;;
56173;SDS011;42058;52.308;20.924;2024-02-15T00:58:26;17.10;;;6.90;;
56173;SDS011;42058;52.308;20.924;2024-02-15T01:00:54;16.10;;;7.20;;
56173;SDS011;42058;52.308;20.924;2024-02-15T01:03:22;15.80;;;7.00;;
56173;SDS011;42058;52.308;20.924;2024-02-15T01:05:50;14.10;;;5.40;;
56173;SDS011;42058;52.308;20.924;2024-02-15T01:08:19;14.30;;;6.60;;
56173;SDS011;42058;52.308;20.924;2024-02-15T01:10:47;16.70;;;6.90;;
56173;SDS011;42058;52.308;20.924;2024-02-15T01:13:15;15.40;;;7.20;;
56173;SDS011;42058;52.308;20.924;2024-02-15T01:15:43;11.50;;;5.70;;
56173;SDS011;42058;52.308;20.924;2024-02-15T01:18:10;17.20;;;6.90;;
56173;SDS011;42058;52.308;20.924;2024-02-15T01:20:38;14.30;;;5.70;;
56173;SDS011;42058;52.308;20.924;2024-02-15T01:23:06;15.90;;;6.90;;
56173;SDS011;42058;52.308;20.924;2024-02-15T01:25:35;16.00;;;6.60;;
56173;SDS011;42058;52.308;20.924;2024-02-15T01:28:02;14.30;;;6.90;;
56173;SDS011;42058;52.308;20.924;2024-02-15T01:30:31;15.20;;;6.90;;
56173;SDS011;42058;52.308;20.924;2024-02-15T01:32:59;15.70;;;6.50;;
56173;SDS011;42058;52.308;20.924;2024-02-15T01:35:27;17.70;;;7.30;;
56173;SDS011;42058;52.308;20.924;2024-02-15T01:37:55;15.10;;;7.30;;
56173;SDS011;42058;52.308;20.924;2024-02-15T01:40:22;17.00;;;7.20;;
56173;SDS011;42058;52.308;20.924;2024-02-15T01:42:50;17.00;;;7.40;;
56173;SDS011;42058;52.308;20.924;2024-02-15T01:45:18;16.10;;;6.50;;
56173;SDS011;42058;52.308;20.924;2024-02-15T01:47:47;17.50;;;7.00;;
56173;SDS011;42058;52.308;20.924;2024-02-15T01:50:16;12.30;;;5.60;;
56173;SDS011;42058;52.308;20.924;2024-02-15T01:52:45;18.90;;;7.40;;
56173;SDS011;42058;52.308;20.924;2024-02-15T01:55:15;16.60;;;7.00;;
56173;SDS011;42058;52.308;20.924;2024-02-15T01:57:45;18.00;;;7.40;;
56173;SDS011;42058;52.308;20.924;2024-02-15T02:00:18;13.50;;;7.30;;
56173;SDS011;42058;52.308;20.924;2024-02-15T02:02:46;16.30;;;7.70;;
56173;SDS011;42058;52.308;20.924;2024-02-15T02:05:17;15.10;;;7.40;;
56173;SDS011;42058;52.308;20.924;2024-02-15T02:07:45;15.80;;;7.20;;
56173;SDS011;42058;52.308;20.924;2024-02-15T02:10:12;14.00;;;6.60;;
56173;SDS011;42058;52.308;20.924;2024-02-15T02:12:42;16.70;;;7.50;;
56173;SDS011;42058;52.308;20.924;2024-02-15T02:15:09;17.80;;;7.80;;
56173;SDS011;42058;52.308;20.924;2024-02-15T02:17:38;14.40;;;6.80;;
56173;SDS011;42058;52.308;20.924;2024-02-15T02:20:08;18.30;;;7.40;;
56173;SDS011;42058;52.308;20.924;2024-02-15T02:22:38;21.20;;;7.80;;
56173;SDS011;42058;52.308;20.924;2024-02-15T02:25:06;19.70;;;8.60;;
56173;SDS011;42058;52.308;20.924;2024-02-15T02:27:36;18.50;;;7.50;;
56173;SDS011;42058;52.308;20.924;2024-02-15T02:30:04;20.00;;;7.80;;
56173;SDS011;42058;52.308;20.924;2024-02-15T02:32:34;21.60;;;7.60;;
56173;SDS011;42058;52.308;20.924;2024-02-15T02:35:03;25.00;;;9.40;;
56173;SDS011;42058;52.308;20.924;2024-02-15T02:37:31;16.70;;;6.90;;
56173;SDS011;42058;52.308;20.924;2024-02-15T02:40:04;13.80;;;6.80;;
56173;SDS011;42058;52.308;20.924;2024-02-15T02:42:36;16.40;;;7.60;;
56173;SDS011;42058;52.308;20.924;2024-02-15T02:45:13;15.20;;;6.80;;
56173;SDS011;42058;52.308;20.924;2024-02-15T02:47:41;21.30;;;7.80;;
56173;SDS011;42058;52.308;20.924;2024-02-15T02:50:09;16.40;;;8.10;;
56173;SDS011;42058;52.308;20.924;2024-02-15T02:52:37;14.70;;;7.40;;
56173;SDS011;42058;52.308;20.924;2024-02-15T02:55:06;19.10;;;7.70;;
56173;SDS011;42058;52.308;20.924;2024-02-15T02:57:35;14.30;;;7.30;;
56173;SDS011;42058;52.308;20.924;2024-02-15T03:00:07;16.50;;;7.40;;
56173;SDS011;42058;52.308;20.924;2024-02-15T03:02:40;19.40;;;7.90;;
56173;SDS011;42058;52.308;20.924;2024-02-15T03:05:08;14.30;;;7.20;;
56173;SDS011;42058;52.308;20.924;2024-02-15T03:07:38;18.70;;;7.50;;
56173;SDS011;42058;52.308;20.924;2024-02-15T03:10:10;15.20;;;7.40;;
56173;SDS011;42058;52.308;20.924;2024-02-15T03:12:41;16.80;;;8.50;;
56173;SDS011;42058;52.308;20.924;2024-02-15T03:15:16;17.60;;;7.80;;
56173;SDS011;42058;52.308;20.924;2024-02-15T03:17:46;15.10;;;8.00;;
56173;SDS011;42058;52.308;20.924;2024-02-15T03:20:15;18.00;;;8.40;;
56173;SDS011;42058;52.308;20.924;2024-02-15T03:22:54;16.30;;;8.40;;
56173;SDS011;42058;52.308;20.924;2024-02-15T03:25:24;12.10;;;7.20;;
56173;SDS011;42058;52.308;20.924;2024-02-15T03:27:53;24.10;;;8.80;;
56173;SDS011;42058;52.308;20.924;2024-02-15T03:30:22;18.10;;;8.60;;
56173;SDS011;42058;52.308;20.924;2024-02-15T03:32:54;18.00;;;7.70;;
56173;SDS011;42058;52.308;20.924;2024-02-15T03:35:27;18.40;;;8.00;;
56173;SDS011;42058;52.308;20.924;2024-02-15T03:37:58;15.70;;;7.60;;
56173;SDS011;42058;52.308;20.924;2024-02-15T03:40:26;16.80;;;8.40;;
56173;SDS011;42058;52.308;20.924;2024-02-15T03:42:54;20.10;;;8.70;;
56173;SDS011;42058;52.308;20.924;2024-02-15T03:45:23;19.70;;;8.80;;
56173;SDS011;42058;52.308;20.924;2024-02-15T03:47:54;16.70;;;8.10;;
56173;SDS011;42058;52.308;20.924;2024-02-15T03:50:25;21.50;;;8.50;;
56173;SDS011;42058;52.308;20.924;2024-02-15T03:52:53;16.80;;;8.00;;
56173;SDS011;42058;52.308;20.924;2024-02-15T03:55:22;18.10;;;8.40;;
56173;SDS011;42058;52.308;20.924;2024-02-15T03:57:51;21.60;;;9.20;;
56173;SDS011;42058;52.308;20.924;2024-02-15T04:00:20;16.10;;;7.80;;
56173;SDS011;42058;52.308;20.924;2024-02-15T04:02:49;21.80;;;8.60;;
56173;SDS011;42058;52.308;20.924;2024-02-15T04:05:18;18.20;;;7.90;;
56173;SDS011;42058;52.308;20.924;2024-02-15T04:07:46;20.00;;;8.60;;
56173;SDS011;42058;52.308;20.924;2024-02-15T04:10:15;17.00;;;8.20;;
56173;SDS011;42058;52.308;20.924;2024-02-15T04:12:45;17.60;;;8.80;;
56173;SDS011;42058;52.308;20.924;2024-02-15T04:15:13;16.40;;;8.30;;
56173;SDS011;42058;52.308;20.924;2024-02-15T04:17:45;16.10;;;8.00;;
56173;SDS011;42058;52.308;20.924;2024-02-15T04:20:13;18.60;;;8.10;;
56173;SDS011;42058;52.308;20.924;2024-02-15T04:22:43;20.90;;;8.60;;
56173;SDS011;42058;52.308;20.924;2024-02-15T04:25:11;18.60;;;8.60;;
56173;SDS011;42058;52.308;20.924;2024-02-15T04:27:45;21.30;;;7.80;;
56173;SDS011;42058;52.308;20.924;2024-02-15T04:30:14;16.90;;;8.40;;
56173;SDS011;42058;52.308;20.924;2024-02-15T04:32:43;22.30;;;9.40;;
56173;SDS011;42058;52.308;20.924;2024-02-15T04:35:12;17.00;;;8.30;;
56173;SDS011;42058;52.308;20.924;2024-02-15T04:37:41;22.40;;;8.80;;
56173;SDS011;42058;52.308;20.924;2024-02-15T04:40:09;29.90;;;9.00;;
56173;SDS011;42058;52.308;20.924;2024-02-15T04:42:39;25.40;;;8.80;;
56173;SDS011;42058;52.308;20.924;2024-02-15T04:45:08;18.60;;;8.50;;
56173;SDS011;42058;52.308;20.924;2024-02-15T04:47:38;18.00;;;8.10;;
56173;SDS011;42058;52.308;20.924;2024-02-15T04:50:08;18.30;;;8.10;;
56173;SDS011;42058;52.308;20.924;2024-02-15T04:52:36;16.60;;;8.60;;
56173;SDS011;42058;52.308;20.924;2024-02-15T04:55:04;25.20;;;9.80;;
56173;SDS011;42058;52.308;20.924;2024-02-15T04:57:33;15.80;;;7.30;;
56173;SDS011;42058;52.308;20.924;2024-02-15T05:00:04;19.10;;;8.30;;
56173;SDS011;42058;52.308;20.924;2024-02-15T05:02:41;19.70;;;8.70;;
56173;SDS011;42058;52.308;20.924;2024-02-15T05:05:09;17.90;;;8.10;;
56173;SDS011;42058;52.308;20.924;2024-02-15T05:07:41;16.20;;;8.00;;
56173;SDS011;42058;52.308;20.924;2024-02-15T05:10:10;18.20;;;7.90;;
56173;SDS011;42058;52.308;20.924;2024-02-15T05:12:38;22.90;;;8.50;;
56173;SDS011;42058;52.308;20.924;2024-02-15T05:15:10;20.50;;;8.70;;
56173;SDS011;42058;52.308;20.924;2024-02-15T05:17:40;19.90;;;8.70;;
56173;SDS011;42058;52.308;20.924;2024-02-15T05:20:09;18.10;;;9.10;;
56173;SDS011;42058;52.308;20.924;2024-02-15T05:22:42;20.10;;;8.90;;
56173;SDS011;42058;52.308;20.924;2024-02-15T05:25:18;16.70;;;8.20;;
56173;SDS011;42058;52.308;20.924;2024-02-15T05:27:54;20.30;;;10.50;;
56173;SDS011;42058;52.308;20.924;2024-02-15T05:30:24;28.50;;;10.50;;
56173;SDS011;42058;52.308;20.924;2024-02-15T05:32:52;27.50;;;12.00;;
56173;SDS011;42058;52.308;20.924;2024-02-15T05:35:23;28.50;;;10.40;;
56173;SDS011;42058;52.308;20.924;2024-02-15T05:37:52;25.80;;;11.10;;
56173;SDS011;42058;52.308;20.924;2024-02-15T05:40:23;21.10;;;9.90;;
56173;SDS011;42058;52.308;20.924;2024-02-15T05:42:54;23.50;;;10.20;;
56173;SDS011;42058;52.308;20.924;2024-02-15T05:47:52;20.50;;;9.40;;
56173;SDS011;42058;52.308;20.924;2024-02-15T05:50:21;19.50;;;10.00;;
56173;SDS011;42058;52.308;20.924;2024-02-15T05:52:49;19.30;;;9.70;;
56173;SDS011;42058;52.308;20.924;2024-02-15T05:55:19;20.80;;;9.50;;
56173;SDS011;42058;52.308;20.924;2024-02-15T05:57:47;21.50;;;10.70;;
56173;SDS011;42058;52.308;20.924;2024-02-15T06:00:14;32.80;;;11.50;;
56173;SDS011;42058;52.308;20.924;2024-02-15T06:02:49;30.80;;;12.70;;
56173;SDS011;42058;52.308;20.924;2024-02-15T06:05:18;29.40;;;12.30;;
56173;SDS011;42058;52.308;20.924;2024-02-15T06:07:47;32.80;;;11.80;;
56173;SDS011;42058;52.308;20.924;2024-02-15T06:10:15;32.70;;;12.00;;
56173;SDS011;42058;52.308;20.924;2024-02-15T06:12:43;27.60;;;11.40;;
56173;SDS011;42058;52.308;20.924;2024-02-15T06:15:11;33.50;;;12.50;;
56173;SDS011;42058;52.308;20.924;2024-02-15T06:17:44;30.40;;;12.90;;
56173;SDS011;42058;52.308;20.924;2024-02-15T06:20:13;29.20;;;14.10;;
56173;SDS011;42058;52.308;20.924;2024-02-15T06:22:41;36.50;;;14.60;;
56173;SDS011;42058;52.308;20.924;2024-02-15T06:25:09;29.50;;;12.80;;
56173;SDS011;42058;52.308;20.924;2024-02-15T06:27:38;30.40;;;12.10;;
56173;SDS011;42058;52.308;20.924;2024-02-15T06:30:09;24.90;;;11.60;;
56173;SDS011;42058;52.308;20.924;2024-02-15T06:32:57;23.40;;;11.30;;
56173;SDS011;42058;52.308;20.924;2024-02-15T06:35:43;25.50;;;12.60;;
56173;SDS011;42058;52.308;20.924;2024-02-15T06:38:29;28.40;;;13.00;;
56173;SDS011;42058;52.308;20.924;2024-02-15T06:41:17;33.30;;;13.30;;
56173;SDS011;42058;52.308;20.924;2024-02-15T06:43:48;30.60;;;14.30;;
56173;SDS011;42058;52.308;20.924;2024-02-15T06:46:16;21.50;;;11.10;;
56173;SDS011;42058;52.308;20.924;2024-02-15T06:48:43;34.40;;;14.10;;
56173;SDS011;42058;52.308;20.924;2024-02-15T06:51:12;29.70;;;13.30;;
56173;SDS011;42058;52.308;20.924;2024-02-15T06:53:42;29.10;;;14.80;;
56173;SDS011;42058;52.308;20.924;2024-02-15T06:56:10;32.80;;;14.30;;
56173;SDS011;42058;52.308;20.924;2024-02-15T06:58:39;29.70;;;14.60;;
56173;SDS011;42058;52.308;20.924;2024-02-15T07:01:10;28.20;;;13.40;;
56173;SDS011;42058;52.308;20.924;2024-02-15T07:03:40;31.20;;;14.60;;
56173;SDS011;42058;52.308;20.924;2024-02-15T07:06:08;32.80;;;15.20;;
56173;SDS011;42058;52.308;20.924;2024-02-15T07:08:36;33.70;;;16.50;;
56173;SDS011;42058;52.308;20.924;2024-02-15T07:11:04;36.00;;;16.20;;
56173;SDS011;42058;52.308;20.924;2024-02-15T07:13:32;28.70;;;15.00;;
56173;SDS011;42058;52.308;20.924;2024-02-15T07:16:01;35.10;;;15.60;;
56173;SDS011;42058;52.308;20.924;2024-02-15T07:18:28;31.20;;;15.00;;
56173;SDS011;42058;52.308;20.924;2024-02-15T07:20:56;38.90;;;16.10;;
56173;SDS011;42058;52.308;20.924;2024-02-15T07:23:27;33.70;;;16.00;;
56173;SDS011;42058;52.308;20.924;2024-02-15T07:25:54;32.90;;;16.10;;
56173;SDS011;42058;52.308;20.924;2024-02-15T07:28:23;29.80;;;15.30;;
56173;SDS011;42058;52.308;20.924;2024-02-15T07:30:54;38.20;;;16.20;;
56173;SDS011;42058;52.308;20.924;2024-02-15T07:33:22;35.50;;;16.30;;
56173;SDS011;42058;52.308;20.924;2024-02-15T07:35:51;33.70;;;16.70;;
56173;SDS011;42058;52.308;20.924;2024-02-15T07:38:19;31.90;;;16.00;;
56173;SDS011;42058;52.308;20.924;2024-02-15T07:40:50;33.80;;;15.70;;
56173;SDS011;42058;52.308;20.924;2024-02-15T07:43:18;34.00;;;17.00;;
56173;SDS011;42058;52.308;20.924;2024-02-15T07:45:46;34.10;;;17.60;;
56173;SDS011;42058;52.308;20.924;2024-02-15T07:48:16;35.20;;;17.40;;
56173;SDS011;42058;52.308;20.924;2024-02-15T07:50:45;33.40;;;17.80;;
56173;SDS011;42058;52.308;20.924;2024-02-15T07:53:13;36.30;;;18.10;;
56173;SDS011;42058;52.308;20.924;2024-02-15T07:55:41;32.70;;;17.00;;
56173;SDS011;42058;52.308;20.924;2024-02-15T07:58:09;38.40;;;17.80;;
56173;SDS011;42058;52.308;20.924;2024-02-15T08:00:37;33.70;;;15.90;;
56173;SDS011;42058;52.308;20.924;2024-02-15T08:03:05;37.50;;;17.90;;
56173;SDS011;42058;52.308;20.924;2024-02-15T08:05:35;36.60;;;17.30;;
56173;SDS011;42058;52.308;20.924;2024-02-15T08:08:04;36.70;;;16.90;;
56173;SDS011;42058;52.308;20.924;2024-02-15T08:10:35;36.40;;;17.80;;
56173;SDS011;42058;52.308;20.924;2024-02-15T08:13:03;37.20;;;17.60;;
56173;SDS011;42058;52.308;20.924;2024-02-15T08:15:30;34.30;;;16.80;;
56173;SDS011;42058;52.308;20.924;2024-02-15T08:18:00;39.50;;;18.80;;
56173;SDS011;42058;52.308;20.924;2024-02-15T08:20:33;39.10;;;18.10;;
56173;SDS011;42058;52.308;20.924;2024-02-15T08:23:01;35.10;;;18.10;;
56173;SDS011;42058;52.308;20.924;2024-02-15T08:25:29;42.80;;;18.90;;
56173;SDS011;42058;52.308;20.924;2024-02-15T08:27:58;39.00;;;19.00;;
56173;SDS011;42058;52.308;20.924;2024-02-15T08:30:32;38.20;;;18.50;;
56173;SDS011;42058;52.308;20.924;2024-02-15T08:33:00;38.20;;;19.20;;
56173;SDS011;42058;52.308;20.924;2024-02-15T08:35:28;36.60;;;18.60;;
56173;SDS011;42058;52.308;20.924;2024-02-15T08:37:56;39.80;;;18.80;;
56173;SDS011;42058;52.308;20.924;2024-02-15T08:40:23;39.30;;;18.90;;
56173;SDS011;42058;52.308;20.924;2024-02-15T08:42:53;35.90;;;18.60;;
56173;SDS011;42058;52.308;20.924;2024-02-15T08:45:21;40.40;;;19.80;;
56173;SDS011;42058;52.308;20.924;2024-02-15T08:47:49;44.10;;;21.00;;
56173;SDS011;42058;52.308;20.924;2024-02-15T08:50:20;40.70;;;20.20;;
56173;SDS011;42058;52.308;20.924;2024-02-15T08:52:50;36.90;;;18.30;;
56173;SDS011;42058;52.308;20.924;2024-02-15T08:55:18;38.20;;;20.30;;
56173;SDS011;42058;52.308;20.924;2024-02-15T08:57:48;38.00;;;19.10;;
56173;SDS011;42058;52.308;20.924;2024-02-15T09:00:16;42.40;;;20.30;;
56173;SDS011;42058;52.308;20.924;2024-02-15T09:02:45;47.80;;;20.00;;
56173;SDS011;42058;52.308;20.924;2024-02-15T09:05:13;34.90;;;18.80;;
56173;SDS011;42058;52.308;20.924;2024-02-15T09:07:43;38.40;;;19.90;;
56173;SDS011;42058;52.308;20.924;2024-02-15T09:10:11;43.60;;;21.30;;
56173;SDS011;42058;52.308;20.924;2024-02-15T09:12:39;43.50;;;22.20;;
56173;SDS011;42058;52.308;20.924;2024-02-15T09:15:09;43.50;;;20.70;;
56173;SDS011;42058;52.308;20.924;2024-02-15T09:17:40;39.70;;;21.00;;
56173;SDS011;42058;52.308;20.924;2024-02-15T09:20:10;41.60;;;19.80;;
56173;SDS011;42058;52.308;20.924;2024-02-15T09:22:48;41.50;;;20.70;;
56173;SDS011;42058;52.308;20.924;2024-02-15T09:25:18;40.90;;;21.40;;
56173;SDS011;42058;52.308;20.924;2024-02-15T09:27:46;40.80;;;21.00;;
56173;SDS011;42058;52.308;20.924;2024-02-15T09:30:14;41.70;;;21.20;;
56173;SDS011;42058;52.308;20.924;2024-02-15T09:32:43;40.00;;;22.30;;
56173;SDS011;42058;52.308;20.924;2024-02-15T09:35:12;38.90;;;21.70;;
56173;SDS011;42058;52.308;20.924;2024-02-15T09:37:45;44.80;;;21.10;;
56173;SDS011;42058;52.308;20.924;2024-02-15T09:40:17;42.40;;;22.70;;
56173;SDS011;42058;52.308;20.924;2024-02-15T09:42:46;46.60;;;23.30;;
56173;SDS011;42058;52.308;20.924;2024-02-15T09:45:15;46.60;;;22.10;;
56173;SDS011;42058;52.308;20.924;2024-02-15T09:47:45;42.90;;;20.80;;
56173;SDS011;42058;52.308;20.924;2024-02-15T09:50:14;42.30;;;23.60;;
56173;SDS011;42058;52.308;20.924;2024-02-15T09:52:44;42.70;;;23.10;;
56173;SDS011;42058;52.308;20.924;2024-02-15T09:55:17;42.40;;;21.90;;
56173;SDS011;42058;52.308;20.924;2024-02-15T09:57:45;41.70;;;21.80;;
56173;SDS011;42058;52.308;20.924;2024-02-15T10:00:14;43.20;;;22.00;;
56173;SDS011;42058;52.308;20.924;2024-02-15T10:02:44;44.40;;;23.40;;
56173;SDS011;42058;52.308;20.924;2024-02-15T10:05:16;47.90;;;24.20;;
56173;SDS011;42058;52.308;20.924;2024-02-15T10:07:45;41.80;;;22.80;;
56173;SDS011;42058;52.308;20.924;2024-02-15T10:10:14;42.00;;;21.90;;
56173;SDS011;42058;52.308;20.924;2024-02-15T10:12:47;45.20;;;22.30;;
56173;SDS011;42058;52.308;20.924;2024-02-15T10:18:03;47.00;;;22.10;;
56173;SDS011;42058;52.308;20.924;2024-02-15T10:20:33;44.30;;;22.70;;
56173;SDS011;42058;52.308;20.924;2024-02-15T10:25:35;41.00;;;21.40;;
56173;SDS011;42058;52.308;20.924;2024-02-15T10:28:04;44.60;;;23.70;;
56173;SDS011;42058;52.308;20.924;2024-02-15T10:30:35;44.30;;;22.10;;
56173;SDS011;42058;52.308;20.924;2024-02-15T10:33:04;41.20;;;20.90;;
56173;SDS011;42058;52.308;20.924;2024-02-15T10:35:34;40.50;;;22.80;;
56173;SDS011;42058;52.308;20.924;2024-02-15T10:38:10;39.90;;;21.00;;
56173;SDS011;42058;52.308;20.924;2024-02-15T10:40:43;43.30;;;22.30;;
56173;SDS011;42058;52.308;20.924;2024-02-15T10:43:13;43.40;;;22.60;;
56173;SDS011;42058;52.308;20.924;2024-02-15T10:45:43;48.00;;;23.50;;
56173;SDS011;42058;52.308;20.924;2024-02-15T10:48:12;42.50;;;21.90;;
56173;SDS011;42058;52.308;20.924;2024-02-15T10:50:41;41.20;;;22.50;;
56173;SDS011;42058;52.308;20.924;2024-02-15T10:53:30;44.10;;;23.20;;
56173;SDS011;42058;52.308;20.924;2024-02-15T10:56:14;45.60;;;22.70;;
56173;SDS011;42058;52.308;20.924;2024-02-15T10:58:48;41.80;;;23.00;;
56173;SDS011;42058;52.308;20.924;2024-02-15T11:01:18;42.70;;;21.60;;
56173;SDS011;42058;52.308;20.924;2024-02-15T11:03:56;43.70;;;22.60;;
56173;SDS011;42058;52.308;20.924;2024-02-15T11:06:27;50.10;;;23.00;;
56173;SDS011;42058;52.308;20.924;2024-02-15T11:08:57;40.50;;;23.20;;
56173;SDS011;42058;52.308;20.924;2024-02-15T11:11:27;47.20;;;23.50;;
56173;SDS011;42058;52.308;20.924;2024-02-15T11:16:52;44.70;;;24.00;;
56173;SDS011;42058;52.308;20.924;2024-02-15T11:22:16;45.90;;;24.20;;
56173;SDS011;42058;52.308;20.924;2024-02-15T11:24:47;43.70;;;22.00;;
56173;SDS011;42058;52.308;20.924;2024-02-15T11:27:26;47.10;;;24.30;;
56173;SDS011;42058;52.308;20.924;2024-02-15T11:29:59;47.60;;;24.80;;
56173;SDS011;42058;52.308;20.924;2024-02-15T11:35:07;45.70;;;24.60;;
56173;SDS011;42058;52.308;20.924;2024-02-15T11:42:51;43.30;;;23.40;;
56173;SDS011;42058;52.308;20.924;2024-02-15T11:45:28;49.30;;;24.30;;
56173;SDS011;42058;52.308;20.924;2024-02-15T11:48:10;44.90;;;23.50;;
56173;SDS011;42058;52.308;20.924;2024-02-15T11:50:40;45.10;;;24.10;;
56173;SDS011;42058;52.308;20.924;2024-02-15T11:53:08;45.80;;;24.00;;
56173;SDS011;42058;52.308;20.924;2024-02-15T11:55:39;47.90;;;23.50;;
56173;SDS011;42058;52.308;20.924;2024-02-15T11:58:09;43.00;;;23.50;;
56173;SDS011;42058;52.308;20.924;2024-02-15T12:00:38;48.40;;;24.50;;
56173;SDS011;42058;52.308;20.924;2024-02-15T12:03:26;48.60;;;25.00;;
56173;SDS011;42058;52.308;20.924;2024-02-15T12:06:30;45.30;;;24.00;;
56173;SDS011;42058;52.308;20.924;2024-02-15T12:09:17;43.30;;;24.60;;
56173;SDS011;42058;52.308;20.924;2024-02-15T12:12:05;45.50;;;24.30;;
56173;SDS011;42058;52.308;20.924;2024-02-15T12:15:01;49.90;;;25.10;;
56173;SDS011;42058;52.308;20.924;2024-02-15T12:17:49;47.90;;;24.70;;
56173;SDS011;42058;52.308;20.924;2024-02-15T12:20:36;45.30;;;23.90;;
56173;SDS011;42058;52.308;20.924;2024-02-15T12:23:04;44.70;;;23.80;;
56173;SDS011;42058;52.308;20.924;2024-02-15T12:25:35;46.00;;;24.10;;
56173;SDS011;42058;52.308;20.924;2024-02-15T12:28:03;54.60;;;26.20;;
56173;SDS011;42058;52.308;20.924;2024-02-15T12:30:33;45.20;;;24.40;;
56173;SDS011;42058;52.308;20.924;2024-02-15T12:33:13;51.20;;;26.00;;
56173;SDS011;42058;52.308;20.924;2024-02-15T12:35:49;46.40;;;25.00;;
56173;SDS011;42058;52.308;20.924;2024-02-15T12:38:18;54.30;;;27.00;;
56173;SDS011;42058;52.308;20.924;2024-02-15T12:40:46;45.00;;;25.30;;
56173;SDS011;42058;52.308;20.924;2024-02-15T12:43:15;46.00;;;24.70;;
56173;SDS011;42058;52.308;20.924;2024-02-15T12:45:44;48.80;;;26.70;;
56173;SDS011;42058;52.308;20.924;2024-02-15T12:48:11;46.90;;;26.00;;
56173;SDS011;42058;52.308;20.924;2024-02-15T12:50:39;45.30;;;26.40;;
56173;SDS011;42058;52.308;20.924;2024-02-15T12:53:07;47.30;;;27.10;;
56173;SDS011;42058;52.308;20.924;2024-02-15T12:55:36;53.30;;;26.30;;
56173;SDS011;42058;52.308;20.924;2024-02-15T12:58:05;48.40;;;26.60;;
56173;SDS011;42058;52.308;20.924;2024-02-15T13:00:41;46.60;;;24.80;;
56173;SDS011;42058;52.308;20.924;2024-02-15T13:03:09;48.50;;;25.90;;
56173;SDS011;42058;52.308;20.924;2024-02-15T13:05:39;48.70;;;26.10;;
56173;SDS011;42058;52.308;20.924;2024-02-15T13:08:08;47.90;;;26.20;;
56173;SDS011;42058;52.308;20.924;2024-02-15T13:10:42;51.20;;;26.70;;
56173;SDS011;42058;52.308;20.924;2024-02-15T13:13:10;47.20;;;26.00;;
56173;SDS011;42058;52.308;20.924;2024-02-15T13:15:38;50.40;;;26.70;;
56173;SDS011;42058;52.308;20.924;2024-02-15T13:18:06;48.10;;;26.20;;
56173;SDS011;42058;52.308;20.924;2024-02-15T13:20:38;48.00;;;26.10;;
56173;SDS011;42058;52.308;20.924;2024-02-15T13:23:10;50.30;;;26.40;;
56173;SDS011;42058;52.308;20.924;2024-02-15T13:25:43;44.30;;;25.20;;
56173;SDS011;42058;52.308;20.924;2024-02-15T13:28:12;48.70;;;25.20;;
56173;SDS011;42058;52.308;20.924;2024-02-15T13:30:41;47.50;;;24.60;;
56173;SDS011;42058;52.308;20.924;2024-02-15T13:33:12;44.90;;;26.50;;
56173;SDS011;42058;52.308;20.924;2024-02-15T13:35:41;39.10;;;23.20;;
56173;SDS011;42058;52.308;20.924;2024-02-15T13:38:09;46.90;;;24.40;;
56173;SDS011;42058;52.308;20.924;2024-02-15T13:40:43;44.90;;;23.90;;
56173;SDS011;42058;52.308;20.924;2024-02-15T13:43:12;48.60;;;24.30;;
56173;SDS011;42058;52.308;20.924;2024-02-15T13:45:40;36.70;;;22.80;;
56173;SDS011;42058;52.308;20.924;2024-02-15T13:48:09;46.70;;;24.70;;
56173;SDS011;42058;52.308;20.924;2024-02-15T13:50:40;49.20;;;26.10;;
56173;SDS011;42058;52.308;20.924;2024-02-15T13:53:08;48.50;;;23.40;;
56173;SDS011;42058;52.308;20.924;2024-02-15T13:55:37;41.00;;;23.00;;
56173;SDS011;42058;52.308;20.924;2024-02-15T13:58:05;41.10;;;23.30;;
56173;SDS011;42058;52.308;20.924;2024-02-15T14:00:35;43.60;;;23.40;;
56173;SDS011;42058;52.308;20.924;2024-02-15T14:03:04;41.70;;;23.40;;
56173;SDS011;42058;52.308;20.924;2024-02-15T14:05:34;46.10;;;22.00;;
56173;SDS011;42058;52.308;20.924;2024-02-15T14:08:03;45.90;;;23.70;;
56173;SDS011;42058;52.308;20.924;2024-02-15T14:10:33;42.10;;;23.00;;
56173;SDS011;42058;52.308;20.924;2024-02-15T14:13:04;44.60;;;23.20;;
56173;SDS011;42058;52.308;20.924;2024-02-15T14:15:33;39.90;;;23.10;;
56173;SDS011;42058;52.308;20.924;2024-02-15T14:18:05;42.30;;;23.40;;
56173;SDS011;42058;52.308;20.924;2024-02-15T14:20:41;45.30;;;24.00;;
56173;SDS011;42058;52.308;20.924;2024-02-15T14:23:10;44.80;;;22.90;;
56173;SDS011;42058;52.308;20.924;2024-02-15T14:25:42;43.70;;;24.20;;
56173;SDS011;42058;52.308;20.924;2024-02-15T14:28:12;39.60;;;22.60;;
56173;SDS011;42058;52.308;20.924;2024-02-15T14:30:41;40.30;;;21.60;;
56173;SDS011;42058;52.308;20.924;2024-02-15T14:33:27;40.70;;;21.50;;
56173;SDS011;42058;52.308;20.924;2024-02-15T14:35:58;41.50;;;22.10;;
56173;SDS011;42058;52.308;20.924;2024-02-15T14:38:27;41.90;;;22.90;;
56173;SDS011;42058;52.308;20.924;2024-02-15T14:40:54;42.00;;;21.60;;
56173;SDS011;42058;52.308;20.924;2024-02-15T14:43:27;43.30;;;23.00;;
56173;SDS011;42058;52.308;20.924;2024-02-15T14:45:56;35.90;;;21.30;;
56173;SDS011;42058;52.308;20.924;2024-02-15T14:48:25;36.20;;;22.60;;
56173;SDS011;42058;52.308;20.924;2024-02-15T14:50:53;37.50;;;21.60;;
56173;SDS011;42058;52.308;20.924;2024-02-15T14:53:24;40.70;;;22.00;;